createdAt,value
2017-06-29T00:02:20.897Z,16.50
2017-06-29T00:04:54.100Z,15.27
2017-06-29T00:07:26.610Z,15.20
2017-06-29T00:09:59.888Z,13.32
2017-06-29T00:12:33.121Z,15.98
2017-06-29T00:15:05.658Z,14.00
2017-06-29T00:17:38.001Z,15.77
2017-06-29T00:20:10.341Z,14.15
2017-06-29T00:22:42.597Z,15.15
2017-06-29T00:25:14.952Z,16.30
2017-06-29T00:27:47.283Z,16.90
2017-06-29T00:30:20.056Z,17.10
2017-06-29T00:32:52.252Z,17.02
2017-06-29T00:35:24.697Z,18.33
2017-06-29T00:37:57.075Z,18.10
2017-06-29T00:40:29.602Z,18.25
2017-06-29T00:43:01.989Z,18.35
2017-06-29T00:45:34.580Z,19.23
2017-06-29T00:48:06.796Z,18.50
2017-06-29T00:50:39.425Z,17.62
2017-06-29T00:53:11.625Z,19.40
2017-06-29T00:55:45.104Z,20.33
2017-06-29T00:58:17.585Z,19.98
2017-06-29T01:00:50.016Z,20.80
2017-06-29T01:03:23.120Z,21.42
2017-06-29T01:05:55.331Z,20.90
2017-06-29T01:08:27.630Z,20.77
2017-06-29T01:11:00.915Z,21.35
2017-06-29T01:13:34.028Z,20.85
2017-06-29T01:16:06.739Z,23.02
2017-06-29T01:18:39.097Z,21.05
2017-06-29T01:21:11.561Z,22.13
2017-06-29T01:23:43.913Z,22.23
2017-06-29T01:26:16.446Z,21.87
2017-06-29T01:28:48.908Z,21.33
2017-06-29T01:31:21.348Z,21.98
2017-06-29T01:33:54.473Z,23.23
2017-06-29T01:36:27.676Z,23.60
2017-06-29T01:39:00.110Z,23.30
2017-06-29T01:41:32.484Z,24.98
2017-06-29T01:44:04.912Z,25.65
2017-06-29T01:46:37.297Z,23.92
2017-06-29T01:49:10.443Z,25.73
2017-06-29T01:51:43.817Z,24.58
2017-06-29T01:54:16.206Z,25.55
2017-06-29T01:56:48.657Z,23.33
2017-06-29T01:59:27.844Z,25.20
2017-06-29T02:02:00.908Z,25.15
2017-06-29T02:04:34.021Z,25.80
2017-06-29T02:07:07.301Z,23.60
2017-06-29T02:09:40.532Z,23.55
2017-06-29T02:12:12.802Z,24.20
2017-06-29T02:14:45.902Z,24.77
2017-06-29T02:17:25.968Z,25.20
2017-06-29T02:19:58.335Z,23.83
2017-06-29T02:22:30.897Z,23.40
2017-06-29T02:25:03.225Z,22.98
2017-06-29T02:27:35.701Z,24.08
2017-06-29T02:30:08.259Z,25.88
2017-06-29T02:32:41.441Z,23.70
2017-06-29T02:35:13.866Z,22.27
2017-06-29T02:37:46.245Z,23.23
2017-06-29T02:40:18.658Z,23.10
2017-06-29T02:42:51.080Z,23.38
2017-06-29T02:45:23.530Z,23.12
2017-06-29T02:47:56.690Z,23.17
2017-06-29T02:50:29.122Z,23.35
2017-06-29T02:53:01.609Z,22.37
2017-06-29T02:55:34.005Z,23.00
2017-06-29T02:58:07.201Z,21.98
2017-06-29T03:00:39.669Z,21.95
2017-06-29T03:03:12.200Z,22.05
2017-06-29T03:05:45.284Z,21.17
2017-06-29T03:08:17.885Z,21.27
2017-06-29T03:10:50.280Z,20.37
2017-06-29T03:13:22.743Z,22.23
2017-06-29T03:15:55.808Z,21.25
2017-06-29T03:18:28.841Z,22.23
2017-06-29T03:21:01.173Z,21.25
2017-06-29T03:23:33.853Z,20.77
2017-06-29T03:26:06.957Z,22.65
2017-06-29T03:28:39.459Z,21.25
2017-06-29T03:31:11.765Z,20.50
2017-06-29T03:33:44.178Z,22.87
2017-06-29T03:36:16.405Z,20.62
2017-06-29T03:38:49.649Z,21.50
2017-06-29T03:41:21.973Z,21.45
2017-06-29T03:43:54.622Z,22.27
2017-06-29T03:46:26.918Z,23.05
2017-06-29T03:49:00.140Z,25.00
2017-06-29T03:51:33.396Z,23.25
2017-06-29T03:54:05.804Z,24.20
2017-06-29T03:56:38.288Z,24.12
2017-06-29T03:59:10.652Z,24.30
2017-06-29T04:01:49.908Z,23.67
2017-06-29T04:04:22.397Z,23.50
2017-06-29T04:06:54.764Z,24.80
2017-06-29T04:09:27.940Z,25.55
2017-06-29T04:12:00.341Z,24.75
2017-06-29T04:14:33.676Z,24.92
2017-06-29T04:17:06.054Z,24.12
2017-06-29T04:19:38.628Z,23.48
2017-06-29T04:22:10.939Z,25.73
2017-06-29T04:24:43.291Z,23.60
2017-06-29T04:27:16.547Z,23.92
2017-06-29T04:29:49.078Z,23.92
2017-06-29T04:32:22.348Z,22.92
2017-06-29T04:34:55.433Z,23.08
2017-06-29T04:37:27.717Z,24.73
2017-06-29T04:40:00.249Z,24.63
2017-06-29T04:42:33.316Z,23.50
2017-06-29T04:45:05.813Z,24.80
2017-06-29T04:47:37.977Z,23.83
2017-06-29T04:50:10.656Z,24.85
2017-06-29T04:52:43.168Z,25.88
2017-06-29T04:55:15.489Z,22.80
2017-06-29T04:57:48.688Z,25.37
2017-06-29T05:00:21.237Z,24.90
2017-06-29T05:02:53.621Z,24.77
2017-06-29T05:05:26.097Z,25.73
2017-06-29T05:07:59.196Z,26.62
2017-06-29T05:10:32.697Z,24.92
2017-06-29T05:13:05.100Z,25.02
2017-06-29T05:15:37.565Z,25.23
2017-06-29T05:18:10.705Z,24.92
2017-06-29T05:20:43.943Z,26.85
2017-06-29T05:23:16.415Z,24.50
2017-06-29T05:25:48.797Z,26.05
2017-06-29T05:28:21.164Z,25.85
2017-06-29T05:30:53.548Z,27.52
2017-06-29T05:33:25.926Z,26.23
2017-06-29T05:35:58.318Z,26.00
2017-06-29T05:38:31.457Z,25.15
2017-06-29T05:41:03.892Z,25.67
2017-06-29T05:43:36.192Z,28.45
2017-06-29T05:46:08.532Z,29.02
2017-06-29T05:48:40.671Z,28.15
2017-06-29T05:51:13.172Z,28.92
2017-06-29T05:53:45.568Z,28.12
2017-06-29T05:56:18.860Z,29.58
2017-06-29T05:58:51.328Z,29.48
2017-06-29T06:01:24.452Z,30.88
2017-06-29T06:03:56.842Z,31.67
2017-06-29T06:06:29.320Z,29.95
2017-06-29T06:09:01.620Z,31.42
2017-06-29T06:11:34.941Z,30.58
2017-06-29T06:14:07.245Z,30.92
2017-06-29T06:16:40.416Z,28.05
2017-06-29T06:19:13.597Z,28.55
2017-06-29T06:21:46.138Z,29.23
2017-06-29T06:24:18.528Z,29.92
2017-06-29T06:26:50.933Z,30.37
2017-06-29T06:29:23.296Z,29.60
2017-06-29T06:31:55.962Z,30.05
2017-06-29T06:34:28.213Z,30.55
2017-06-29T06:37:00.812Z,30.75
2017-06-29T06:39:33.277Z,31.75
2017-06-29T06:42:05.852Z,32.47
2017-06-29T06:44:38.117Z,32.58
2017-06-29T06:47:10.490Z,32.25
2017-06-29T06:49:42.840Z,31.30
2017-06-29T06:52:15.312Z,31.52
2017-06-29T06:54:47.585Z,31.85
2017-06-29T06:57:20.081Z,30.60
2017-06-29T06:59:52.393Z,27.98
2017-06-29T07:02:24.869Z,27.98
2017-06-29T07:05:05.164Z,28.08
2017-06-29T07:07:37.721Z,25.42
2017-06-29T07:10:10.834Z,26.83
2017-06-29T07:12:43.278Z,25.15
2017-06-29T07:15:15.669Z,27.95
2017-06-29T07:17:48.964Z,26.80
2017-06-29T07:20:21.610Z,27.73
2017-06-29T07:22:54.959Z,27.13
2017-06-29T07:25:27.485Z,27.92
2017-06-29T07:27:59.880Z,26.08
2017-06-29T07:30:32.152Z,25.20
2017-06-29T07:33:04.849Z,22.85
2017-06-29T07:35:37.832Z,24.60
2017-06-29T07:38:11.132Z,23.97
2017-06-29T07:40:44.311Z,23.05
2017-06-29T07:43:17.533Z,22.57
2017-06-29T07:45:50.021Z,25.67
2017-06-29T07:48:23.088Z,24.05
2017-06-29T07:50:55.492Z,22.00
2017-06-29T07:53:28.005Z,22.73
2017-06-29T07:56:01.096Z,20.07
2017-06-29T07:58:34.192Z,22.87
2017-06-29T08:01:06.707Z,22.00
2017-06-29T08:03:39.272Z,23.20
2017-06-29T08:06:12.565Z,22.90
2017-06-29T08:08:45.008Z,23.80
2017-06-29T08:11:17.365Z,22.67
2017-06-29T08:13:50.767Z,23.60
2017-06-29T08:16:23.128Z,23.50
2017-06-29T08:18:55.544Z,23.37
2017-06-29T08:21:27.905Z,22.63
2017-06-29T08:24:00.458Z,21.80
2017-06-29T08:26:32.745Z,20.70
2017-06-29T08:29:06.085Z,22.40
2017-06-29T08:31:38.477Z,22.92
2017-06-29T08:34:11.728Z,22.15
2017-06-29T08:36:44.137Z,20.07
2017-06-29T08:39:16.553Z,21.30
2017-06-29T08:41:48.884Z,21.40
2017-06-29T08:44:21.479Z,20.50
2017-06-29T08:46:54.840Z,20.17
2017-06-29T08:49:27.448Z,19.60
2017-06-29T08:51:59.832Z,19.87
2017-06-29T08:54:32.036Z,16.30
2017-06-29T08:57:04.404Z,16.67
2017-06-29T08:59:37.862Z,19.60
2017-06-29T09:02:10.100Z,16.80
2017-06-29T09:04:42.553Z,17.10
2017-06-29T09:07:15.012Z,17.70
2017-06-29T09:09:47.352Z,16.93
2017-06-29T09:12:19.734Z,16.40
2017-06-29T09:14:52.276Z,17.67
2017-06-29T09:17:24.556Z,17.00
2017-06-29T09:19:57.783Z,15.60
2017-06-29T09:22:30.196Z,15.73
2017-06-29T09:25:02.681Z,15.87
2017-06-29T09:27:35.732Z,16.83
2017-06-29T09:30:08.109Z,17.07
2017-06-29T09:32:40.653Z,17.30
2017-06-29T09:35:12.989Z,16.83
2017-06-29T09:37:45.417Z,16.70
2017-06-29T09:40:18.543Z,15.70
2017-06-29T09:42:51.237Z,16.30
2017-06-29T09:45:23.709Z,16.13
2017-06-29T09:47:56.140Z,13.97
2017-06-29T09:50:28.649Z,12.50
2017-06-29T09:53:00.933Z,13.17
2017-06-29T09:55:33.293Z,14.70
2017-06-29T09:58:05.706Z,12.17
2017-06-29T10:00:38.757Z,10.77
2017-06-29T10:03:12.161Z,11.77
2017-06-29T10:05:44.392Z,11.30
2017-06-29T10:08:16.852Z,10.43
2017-06-29T10:10:49.970Z,10.20
2017-06-29T10:13:22.329Z,13.23
2017-06-29T10:15:54.818Z,10.87
2017-06-29T10:18:28.244Z,10.77
2017-06-29T10:21:00.581Z,11.40
2017-06-29T10:23:33.096Z,11.10
2017-06-29T10:26:05.384Z,10.53
2017-06-29T10:28:37.792Z,11.13
2017-06-29T10:31:10.100Z,10.90
2017-06-29T10:33:42.556Z,10.30
2017-06-29T10:36:14.924Z,10.40
2017-06-29T10:38:47.388Z,10.63
2017-06-29T10:41:19.656Z,11.27
2017-06-29T10:43:53.061Z,11.20
2017-06-29T10:46:25.293Z,11.77
2017-06-29T10:48:57.651Z,10.80
2017-06-29T10:51:30.009Z,11.10
2017-06-29T10:54:03.052Z,9.67
2017-06-29T10:56:35.641Z,9.63
2017-06-29T10:59:07.921Z,12.97
2017-06-29T11:01:40.493Z,9.67
2017-06-29T11:04:13.553Z,10.60
2017-06-29T11:06:45.772Z,9.50
2017-06-29T11:09:18.096Z,9.70
2017-06-29T11:11:50.533Z,9.50
2017-06-29T11:14:23.660Z,10.50
2017-06-29T11:16:56.183Z,10.43
2017-06-29T11:19:29.335Z,9.90
2017-06-29T11:22:02.501Z,10.87
2017-06-29T11:24:34.924Z,10.50
2017-06-29T11:27:08.105Z,10.80
2017-06-29T11:29:41.368Z,10.80
2017-06-29T11:32:14.040Z,10.43
2017-06-29T11:34:46.200Z,10.10
2017-06-29T11:37:18.463Z,10.13
2017-06-29T11:39:50.797Z,10.20
2017-06-29T11:42:23.264Z,10.20
2017-06-29T11:44:56.560Z,11.00
2017-06-29T11:47:29.037Z,11.97
2017-06-29T11:50:01.440Z,11.43
2017-06-29T11:52:34.552Z,11.23
2017-06-29T11:55:07.833Z,11.67
2017-06-29T11:57:40.304Z,11.30
2017-06-29T12:00:12.716Z,10.57
2017-06-29T12:02:45.192Z,12.20
2017-06-29T12:05:17.569Z,12.03
2017-06-29T12:07:49.860Z,10.70
2017-06-29T12:10:23.045Z,9.73
2017-06-29T12:12:55.568Z,10.67
2017-06-29T12:15:27.948Z,10.83
2017-06-29T12:18:01.249Z,11.17
2017-06-29T12:20:33.528Z,12.90
2017-06-29T12:23:05.952Z,12.23
2017-06-29T12:25:38.372Z,11.40
2017-06-29T12:28:11.686Z,11.97
2017-06-29T12:30:43.952Z,10.77
2017-06-29T12:33:16.597Z,11.70
2017-06-29T12:35:49.013Z,13.07
2017-06-29T12:38:22.373Z,11.63
2017-06-29T12:40:54.744Z,12.67
2017-06-29T12:43:27.274Z,13.30
2017-06-29T12:45:59.632Z,12.97
2017-06-29T12:48:31.941Z,13.57
2017-06-29T12:51:04.337Z,15.17
2017-06-29T12:53:36.715Z,14.60
2017-06-29T12:59:13.949Z,16.93
2017-06-29T13:01:46.317Z,17.33
2017-06-29T13:04:18.812Z,16.37
2017-06-29T13:06:51.149Z,17.75
2017-06-29T13:09:23.553Z,18.15
2017-06-29T13:11:56.652Z,17.27
2017-06-29T13:14:29.957Z,18.23
2017-06-29T13:17:03.043Z,19.02
2017-06-29T13:19:35.374Z,19.02
2017-06-29T13:22:08.509Z,18.45
2017-06-29T13:24:41.712Z,19.73
2017-06-29T13:27:14.716Z,18.77
2017-06-29T13:29:47.096Z,19.25
2017-06-29T13:32:20.333Z,18.25
2017-06-29T13:34:52.781Z,17.12
2017-06-29T13:37:25.135Z,16.20
2017-06-29T13:39:57.572Z,16.60
2017-06-29T13:42:29.966Z,14.43
2017-06-29T13:45:03.159Z,15.23
2017-06-29T13:47:35.593Z,14.63
2017-06-29T13:50:08.727Z,13.82
2017-06-29T13:52:41.875Z,11.95
2017-06-29T13:55:14.113Z,13.07
2017-06-29T13:57:47.237Z,13.07
2017-06-29T14:00:20.484Z,13.35
2017-06-29T14:02:53.029Z,14.50
2017-06-29T14:05:26.371Z,12.23
2017-06-29T14:07:59.501Z,13.60
2017-06-29T14:10:32.068Z,13.70
2017-06-29T14:13:04.448Z,12.55
2017-06-29T14:15:37.035Z,14.20
2017-06-29T14:18:09.320Z,13.55
2017-06-29T14:20:42.522Z,13.70
2017-06-29T14:23:14.864Z,15.07
2017-06-29T14:25:48.245Z,13.40
2017-06-29T14:28:21.304Z,12.95
2017-06-29T14:30:53.808Z,12.77
2017-06-29T14:33:26.177Z,12.63
2017-06-29T14:35:58.642Z,13.40
2017-06-29T14:38:30.948Z,15.48
2017-06-29T14:41:03.364Z,12.73
2017-06-29T14:43:35.785Z,13.62
2017-06-29T14:46:08.234Z,12.95
2017-06-29T14:48:40.500Z,12.85
2017-06-29T14:51:12.733Z,12.55
2017-06-29T14:53:45.016Z,11.20
2017-06-29T14:56:17.482Z,12.15
2017-06-29T14:58:49.813Z,13.43
2017-06-29T15:01:22.224Z,12.68
2017-06-29T15:03:55.349Z,12.90
2017-06-29T15:06:28.678Z,11.48
2017-06-29T15:09:01.000Z,10.35
2017-06-29T15:11:33.513Z,11.48
2017-06-29T15:14:05.803Z,10.40
2017-06-29T15:16:38.327Z,11.73
2017-06-29T15:19:10.613Z,10.07
2017-06-29T15:21:43.141Z,10.20
2017-06-29T15:24:15.469Z,10.25
2017-06-29T15:26:47.793Z,9.95
2017-06-29T15:29:20.165Z,9.77
2017-06-29T15:31:52.732Z,9.45
2017-06-29T15:34:25.140Z,10.90
2017-06-29T15:36:57.809Z,9.55
2017-06-29T15:39:30.272Z,9.88
2017-06-29T15:42:03.317Z,10.00
2017-06-29T15:44:35.856Z,8.88
2017-06-29T15:47:08.401Z,10.10
2017-06-29T15:49:40.709Z,9.40
2017-06-29T15:52:13.072Z,10.70
2017-06-29T15:54:45.530Z,9.38
2017-06-29T15:57:18.024Z,8.60
2017-06-29T15:59:51.181Z,9.88
2017-06-29T16:02:23.740Z,8.80
2017-06-29T16:04:56.097Z,7.32
2017-06-29T16:07:28.556Z,7.05
2017-06-29T16:10:01.702Z,7.10
2017-06-29T16:12:34.385Z,7.43
2017-06-29T16:15:06.632Z,7.78
2017-06-29T16:17:39.228Z,7.53
2017-06-29T16:20:11.457Z,8.55
2017-06-29T16:22:44.720Z,6.95
2017-06-29T16:25:17.868Z,5.57
2017-06-29T16:27:50.457Z,5.80
2017-06-29T16:30:23.544Z,6.03
2017-06-29T16:32:56.017Z,6.50
2017-06-29T16:35:29.176Z,5.95
2017-06-29T16:38:02.608Z,6.15
2017-06-29T16:40:34.989Z,6.65
2017-06-29T16:43:08.113Z,6.75
2017-06-29T16:45:41.300Z,5.32
2017-06-29T16:48:13.700Z,5.55
2017-06-29T16:50:46.196Z,4.90
2017-06-29T16:53:18.561Z,4.90
2017-06-29T16:55:50.961Z,3.75
2017-06-29T16:58:24.160Z,3.12
2017-06-29T17:00:57.412Z,3.30
2017-06-29T17:03:29.852Z,3.45
2017-06-29T17:06:02.452Z,2.90
2017-06-29T17:08:34.820Z,3.37
2017-06-29T17:11:08.369Z,3.70
2017-06-29T17:13:40.676Z,4.10
2017-06-29T17:16:13.021Z,3.70
2017-06-29T17:18:46.420Z,3.45
2017-06-29T17:21:18.760Z,3.60
2017-06-29T17:23:51.214Z,3.70
2017-06-29T17:26:23.549Z,5.00
2017-06-29T17:28:56.141Z,4.07
2017-06-29T17:31:28.556Z,5.00
2017-06-29T17:34:00.993Z,3.47
2017-06-29T17:36:33.241Z,3.75
2017-06-29T17:39:06.424Z,4.32
2017-06-29T17:41:38.718Z,4.78
2017-06-29T17:44:11.428Z,5.47
2017-06-29T17:46:43.641Z,5.15
2017-06-29T17:49:16.077Z,5.20
2017-06-29T17:51:48.356Z,3.95
2017-06-29T17:54:26.439Z,4.40
2017-06-29T17:57:00.950Z,4.37
2017-06-29T17:59:35.580Z,4.57
2017-06-29T18:02:08.065Z,6.53
2017-06-29T18:04:40.612Z,4.57
2017-06-29T18:07:12.881Z,4.95
2017-06-29T18:09:46.173Z,4.97
2017-06-29T18:12:19.285Z,4.62
2017-06-29T18:14:51.620Z,5.30
2017-06-29T18:17:24.828Z,6.20
2017-06-29T18:19:58.064Z,6.47
2017-06-29T18:22:31.209Z,5.72
2017-06-29T18:25:04.713Z,5.70
2017-06-29T18:27:37.097Z,6.55
2017-06-29T18:30:09.566Z,6.15
2017-06-29T18:32:41.898Z,7.28
2017-06-29T18:35:14.398Z,6.97
2017-06-29T18:37:47.488Z,7.57
2017-06-29T18:40:19.721Z,7.28
2017-06-29T18:42:52.844Z,7.40
2017-06-29T18:45:25.092Z,7.72
2017-06-29T18:47:58.100Z,7.53
2017-06-29T18:50:31.232Z,6.72
2017-06-29T18:53:03.621Z,7.32
2017-06-29T18:55:35.968Z,6.75
2017-06-29T18:58:08.472Z,5.90
2017-06-29T19:00:41.684Z,5.97
2017-06-29T19:03:14.875Z,6.47
2017-06-29T19:05:47.425Z,5.10
2017-06-29T19:08:19.857Z,5.50
2017-06-29T19:10:52.424Z,4.85
2017-06-29T19:13:24.797Z,4.70
2017-06-29T19:15:57.925Z,5.22
2017-06-29T19:18:30.268Z,4.85
2017-06-29T19:21:03.473Z,5.22
2017-06-29T19:23:35.892Z,5.25
2017-06-29T19:26:08.335Z,5.10
2017-06-29T19:28:40.720Z,4.60
2017-06-29T19:31:13.206Z,4.68
2017-06-29T19:33:46.351Z,3.50
2017-06-29T19:36:19.650Z,2.87
2017-06-29T19:38:52.801Z,3.42
2017-06-29T19:41:25.065Z,3.35
2017-06-29T19:43:57.364Z,3.30
2017-06-29T19:46:29.701Z,3.22
2017-06-29T19:49:02.795Z,4.95
2017-06-29T19:51:35.096Z,4.80
2017-06-29T19:54:08.394Z,5.20
2017-06-29T19:56:41.701Z,4.90
2017-06-29T19:59:14.944Z,4.82
2017-06-29T20:01:48.052Z,4.68
2017-06-29T20:04:21.205Z,5.85
2017-06-29T20:06:53.809Z,6.10
2017-06-29T20:09:26.890Z,6.28
2017-06-29T20:12:00.149Z,5.75
2017-06-29T20:14:32.541Z,6.45
2017-06-29T20:17:05.680Z,6.12
2017-06-29T20:19:38.053Z,5.10
2017-06-29T20:22:10.492Z,4.40
2017-06-29T20:24:42.682Z,5.32
2017-06-29T20:27:15.121Z,5.12
2017-06-29T20:29:47.349Z,5.00
2017-06-29T20:32:20.621Z,4.95
2017-06-29T20:34:53.076Z,5.37
2017-06-29T20:37:25.502Z,4.87
2017-06-29T20:39:58.601Z,5.35
2017-06-29T20:42:31.020Z,4.95
2017-06-29T20:45:03.476Z,4.70
2017-06-29T20:47:35.777Z,4.40
2017-06-29T20:50:08.866Z,5.12
2017-06-29T20:52:41.321Z,4.65
2017-06-29T20:55:13.701Z,5.03
2017-06-29T20:57:46.076Z,5.60
2017-06-29T21:00:18.392Z,5.07
2017-06-29T21:02:50.725Z,5.30
2017-06-29T21:05:23.769Z,4.62
2017-06-29T21:07:56.449Z,5.55
2017-06-29T21:10:28.692Z,4.65
2017-06-29T21:13:01.400Z,6.00
2017-06-29T21:15:34.498Z,5.55
2017-06-29T21:18:07.173Z,5.40
2017-06-29T21:20:39.676Z,6.35
2017-06-29T21:23:12.136Z,7.45
2017-06-29T21:25:44.518Z,6.75
2017-06-29T21:28:17.844Z,7.32
2017-06-29T21:30:50.193Z,5.97
2017-06-29T21:33:22.833Z,5.55
2017-06-29T21:35:55.128Z,4.90
2017-06-29T21:38:27.529Z,4.97
2017-06-29T21:40:59.940Z,5.15
2017-06-29T21:43:32.596Z,6.07
2017-06-29T21:46:04.974Z,4.60
2017-06-29T21:48:38.297Z,4.87
2017-06-29T21:51:10.823Z,4.20
2017-06-29T21:53:43.981Z,4.15
2017-06-29T21:56:17.121Z,4.60
2017-06-29T21:58:50.352Z,4.12
2017-06-29T22:01:22.667Z,5.00
2017-06-29T22:03:55.804Z,5.05
2017-06-29T22:06:29.057Z,5.20
2017-06-29T22:09:02.360Z,6.28
2017-06-29T22:11:34.630Z,5.22
2017-06-29T22:14:07.894Z,4.85
2017-06-29T22:16:41.016Z,5.07
2017-06-29T22:19:13.631Z,5.18
2017-06-29T22:21:45.964Z,6.68
2017-06-29T22:24:18.340Z,5.87
2017-06-29T22:26:50.659Z,5.80
2017-06-29T22:29:23.353Z,6.20
2017-06-29T22:31:55.789Z,5.05
2017-06-29T22:34:28.235Z,5.40
2017-06-29T22:37:00.557Z,4.75
2017-06-29T22:39:32.965Z,5.20
2017-06-29T22:42:05.284Z,4.78
2017-06-29T22:44:38.549Z,5.65
2017-06-29T22:47:10.989Z,4.65
2017-06-29T22:49:43.701Z,4.50
2017-06-29T22:52:16.664Z,5.25
2017-06-29T22:54:49.132Z,4.35
2017-06-29T22:57:21.512Z,4.10
2017-06-29T22:59:54.704Z,4.12
2017-06-29T23:02:27.896Z,4.43
2017-06-29T23:05:00.325Z,4.50
2017-06-29T23:07:33.526Z,5.05
2017-06-29T23:10:06.158Z,4.30
2017-06-29T23:12:38.405Z,3.47
2017-06-29T23:15:10.776Z,4.37
2017-06-29T23:17:43.092Z,4.72
2017-06-29T23:20:15.516Z,5.32
2017-06-29T23:22:47.804Z,4.47
2017-06-29T23:25:21.152Z,4.75
2017-06-29T23:27:53.489Z,4.30
2017-06-29T23:30:25.892Z,4.05
2017-06-29T23:32:58.288Z,4.15
2017-06-29T23:35:31.913Z,4.15
2017-06-29T23:38:04.205Z,3.75
2017-06-29T23:40:36.675Z,3.55
2017-06-29T23:43:09.150Z,3.90
2017-06-29T23:45:41.429Z,3.80
2017-06-29T23:48:13.813Z,3.85
2017-06-29T23:50:46.293Z,3.83
2017-06-29T23:53:18.600Z,3.35
2017-06-29T23:55:51.162Z,3.70
2017-06-29T23:58:23.480Z,4.00
